sensor_id;sensor_type;location;lat;lon;timestamp;temperature;humidity
25949;DHT22;13961;51.178;4.448;2023-10-08T00:02:05;17.00;99.90
25949;DHT22;13961;51.178;4.448;2023-10-08T00:04:32;16.90;99.90
25949;DHT22;13961;51.178;4.448;2023-10-08T00:07:04;16.80;99.90
25949;DHT22;13961;51.178;4.448;2023-10-08T00:09:34;16.70;99.90
25949;DHT22;13961;51.178;4.448;2023-10-08T00:12:03;16.60;99.90
25949;DHT22;13961;51.178;4.448;2023-10-08T00:14:29;16.70;99.90
25949;DHT22;13961;51.178;4.448;2023-10-08T00:16:55;16.80;99.90
25949;DHT22;13961;51.178;4.448;2023-10-08T00:19:20;16.80;99.90
25949;DHT22;13961;51.178;4.448;2023-10-08T00:21:47;16.90;99.90
25949;DHT22;13961;51.178;4.448;2023-10-08T00:24:13;17.00;99.90
25949;DHT22;13961;51.178;4.448;2023-10-08T00:26:39;17.00;99.90
25949;DHT22;13961;51.178;4.448;2023-10-08T00:29:08;16.80;99.90
25949;DHT22;13961;51.178;4.448;2023-10-08T00:31:47;16.90;99.90
25949;DHT22;13961;51.178;4.448;2023-10-08T00:34:16;17.00;99.90
25949;DHT22;13961;51.178;4.448;2023-10-08T00:36:44;16.90;99.90
25949;DHT22;13961;51.178;4.448;2023-10-08T00:39:12;16.90;99.90
25949;DHT22;13961;51.178;4.448;2023-10-08T00:41:45;16.80;99.90
25949;DHT22;13961;51.178;4.448;2023-10-08T00:44:13;16.90;99.90
25949;DHT22;13961;51.178;4.448;2023-10-08T00:46:41;16.80;99.90
25949;DHT22;13961;51.178;4.448;2023-10-08T00:49:15;16.90;99.90
25949;DHT22;13961;51.178;4.448;2023-10-08T00:51:48;16.90;99.90
25949;DHT22;13961;51.178;4.448;2023-10-08T00:54:24;16.80;99.90
25949;DHT22;13961;51.178;4.448;2023-10-08T00:56:53;16.80;99.90
25949;DHT22;13961;51.178;4.448;2023-10-08T00:59:26;16.90;99.90
25949;DHT22;13961;51.178;4.448;2023-10-08T01:01:53;16.80;99.90
25949;DHT22;13961;51.178;4.448;2023-10-08T01:04:25;16.70;99.90
25949;DHT22;13961;51.178;4.448;2023-10-08T01:07:01;16.70;99.90
25949;DHT22;13961;51.178;4.448;2023-10-08T01:09:41;16.70;99.90
25949;DHT22;13961;51.178;4.448;2023-10-08T01:12:12;16.80;99.90
25949;DHT22;13961;51.178;4.448;2023-10-08T01:14:41;16.70;99.90
25949;DHT22;13961;51.178;4.448;2023-10-08T01:17:10;16.70;99.90
25949;DHT22;13961;51.178;4.448;2023-10-08T01:19:40;16.70;99.90
25949;DHT22;13961;51.178;4.448;2023-10-08T01:22:08;16.80;99.90
25949;DHT22;13961;51.178;4.448;2023-10-08T01:24:42;16.60;99.90
25949;DHT22;13961;51.178;4.448;2023-10-08T01:27:08;16.70;99.90
25949;DHT22;13961;51.178;4.448;2023-10-08T01:29:38;16.60;99.90
25949;DHT22;13961;51.178;4.448;2023-10-08T01:32:04;16.70;99.90
25949;DHT22;13961;51.178;4.448;2023-10-08T01:34:35;16.60;99.90
25949;DHT22;13961;51.178;4.448;2023-10-08T01:37:02;16.60;99.90
25949;DHT22;13961;51.178;4.448;2023-10-08T01:39:36;16.50;99.90
25949;DHT22;13961;51.178;4.448;2023-10-08T01:42:02;16.40;99.90
25949;DHT22;13961;51.178;4.448;2023-10-08T01:44:28;16.40;99.90
25949;DHT22;13961;51.178;4.448;2023-10-08T01:46:56;16.40;99.90
25949;DHT22;13961;51.178;4.448;2023-10-08T01:49:23;16.30;99.90
25949;DHT22;13961;51.178;4.448;2023-10-08T01:51:54;16.30;99.90
25949;DHT22;13961;51.178;4.448;2023-10-08T01:54:20;16.30;99.90
25949;DHT22;13961;51.178;4.448;2023-10-08T01:56:46;16.20;99.90
25949;DHT22;13961;51.178;4.448;2023-10-08T01:59:14;16.20;99.90
25949;DHT22;13961;51.178;4.448;2023-10-08T02:01:44;16.20;99.90
25949;DHT22;13961;51.178;4.448;2023-10-08T02:04:13;16.20;99.90
25949;DHT22;13961;51.178;4.448;2023-10-08T02:06:41;16.10;99.90
25949;DHT22;13961;51.178;4.448;2023-10-08T02:09:07;16.10;99.90
25949;DHT22;13961;51.178;4.448;2023-10-08T02:14:09;16.20;99.90
25949;DHT22;13961;51.178;4.448;2023-10-08T02:16:34;16.20;99.90
25949;DHT22;13961;51.178;4.448;2023-10-08T02:19:00;16.20;99.90
25949;DHT22;13961;51.178;4.448;2023-10-08T02:21:26;16.10;99.90
25949;DHT22;13961;51.178;4.448;2023-10-08T02:23:52;16.00;99.90
25949;DHT22;13961;51.178;4.448;2023-10-08T02:26:18;16.10;99.90
25949;DHT22;13961;51.178;4.448;2023-10-08T02:28:45;16.10;99.90
25949;DHT22;13961;51.178;4.448;2023-10-08T02:31:10;16.10;99.90
25949;DHT22;13961;51.178;4.448;2023-10-08T02:33:36;16.10;99.90
25949;DHT22;13961;51.178;4.448;2023-10-08T02:36:03;15.90;99.90
25949;DHT22;13961;51.178;4.448;2023-10-08T02:38:30;16.00;99.90
25949;DHT22;13961;51.178;4.448;2023-10-08T02:41:03;16.00;99.90
25949;DHT22;13961;51.178;4.448;2023-10-08T02:43:35;16.10;99.90
25949;DHT22;13961;51.178;4.448;2023-10-08T02:46:02;16.10;99.90
25949;DHT22;13961;51.178;4.448;2023-10-08T02:48:33;16.30;99.90
25949;DHT22;13961;51.178;4.448;2023-10-08T02:51:00;16.40;99.90
25949;DHT22;13961;51.178;4.448;2023-10-08T02:53:36;16.30;99.90
25949;DHT22;13961;51.178;4.448;2023-10-08T02:56:02;16.40;99.90
25949;DHT22;13961;51.178;4.448;2023-10-08T02:58:37;16.40;99.90
25949;DHT22;13961;51.178;4.448;2023-10-08T03:01:04;16.50;99.90
25949;DHT22;13961;51.178;4.448;2023-10-08T03:03:29;16.50;99.90
25949;DHT22;13961;51.178;4.448;2023-10-08T03:05:58;16.50;99.90
25949;DHT22;13961;51.178;4.448;2023-10-08T03:08:24;16.50;99.90
25949;DHT22;13961;51.178;4.448;2023-10-08T03:10:51;16.60;99.90
25949;DHT22;13961;51.178;4.448;2023-10-08T03:13:21;16.50;99.90
25949;DHT22;13961;51.178;4.448;2023-10-08T03:15:47;16.40;99.90
25949;DHT22;13961;51.178;4.448;2023-10-08T03:18:23;16.50;99.90
25949;DHT22;13961;51.178;4.448;2023-10-08T03:20:50;16.40;99.90
25949;DHT22;13961;51.178;4.448;2023-10-08T03:23:16;16.40;99.90
25949;DHT22;13961;51.178;4.448;2023-10-08T03:26:00;16.30;99.90
25949;DHT22;13961;51.178;4.448;2023-10-08T03:28:28;16.30;99.90
25949;DHT22;13961;51.178;4.448;2023-10-08T03:30:55;16.40;99.90
25949;DHT22;13961;51.178;4.448;2023-10-08T03:33:35;16.30;99.90
25949;DHT22;13961;51.178;4.448;2023-10-08T03:36:06;16.20;99.90
25949;DHT22;13961;51.178;4.448;2023-10-08T03:38:52;16.20;99.90
25949;DHT22;13961;51.178;4.448;2023-10-08T03:41:25;16.20;99.90
25949;DHT22;13961;51.178;4.448;2023-10-08T03:43:56;16.20;99.90
25949;DHT22;13961;51.178;4.448;2023-10-08T03:46:28;16.20;99.90
25949;DHT22;13961;51.178;4.448;2023-10-08T03:48:54;16.20;99.90
25949;DHT22;13961;51.178;4.448;2023-10-08T03:51:23;16.20;99.90
25949;DHT22;13961;51.178;4.448;2023-10-08T03:53:53;16.20;99.90
25949;DHT22;13961;51.178;4.448;2023-10-08T03:56:32;16.00;99.90
25949;DHT22;13961;51.178;4.448;2023-10-08T03:59:02;16.00;99.90
25949;DHT22;13961;51.178;4.448;2023-10-08T04:01:47;16.10;99.90
25949;DHT22;13961;51.178;4.448;2023-10-08T04:04:22;16.10;99.90
25949;DHT22;13961;51.178;4.448;2023-10-08T04:06:56;16.10;99.90
25949;DHT22;13961;51.178;4.448;2023-10-08T04:09:42;16.10;99.90
25949;DHT22;13961;51.178;4.448;2023-10-08T04:12:08;16.10;99.90
25949;DHT22;13961;51.178;4.448;2023-10-08T04:14:36;16.10;99.90
25949;DHT22;13961;51.178;4.448;2023-10-08T04:17:02;16.20;99.90
25949;DHT22;13961;51.178;4.448;2023-10-08T04:19:30;16.00;99.90
25949;DHT22;13961;51.178;4.448;2023-10-08T04:21:56;16.00;99.90
25949;DHT22;13961;51.178;4.448;2023-10-08T04:24:26;16.10;99.90
25949;DHT22;13961;51.178;4.448;2023-10-08T04:27:00;16.10;99.90
25949;DHT22;13961;51.178;4.448;2023-10-08T04:29:29;16.00;99.90
25949;DHT22;13961;51.178;4.448;2023-10-08T04:31:59;16.00;99.90
25949;DHT22;13961;51.178;4.448;2023-10-08T04:34:36;16.00;99.90
25949;DHT22;13961;51.178;4.448;2023-10-08T04:37:01;16.10;99.90
25949;DHT22;13961;51.178;4.448;2023-10-08T04:39:29;16.00;99.90
25949;DHT22;13961;51.178;4.448;2023-10-08T04:41:59;15.90;99.90
25949;DHT22;13961;51.178;4.448;2023-10-08T04:44:31;15.80;99.90
25949;DHT22;13961;51.178;4.448;2023-10-08T04:46:57;15.80;99.90
25949;DHT22;13961;51.178;4.448;2023-10-08T04:49:30;15.70;99.90
25949;DHT22;13961;51.178;4.448;2023-10-08T04:52:03;15.70;99.90
25949;DHT22;13961;51.178;4.448;2023-10-08T04:54:34;15.80;99.90
25949;DHT22;13961;51.178;4.448;2023-10-08T04:57:06;15.90;99.90
25949;DHT22;13961;51.178;4.448;2023-10-08T04:59:32;15.80;99.90
25949;DHT22;13961;51.178;4.448;2023-10-08T05:02:03;15.80;99.90
25949;DHT22;13961;51.178;4.448;2023-10-08T05:04:38;15.90;99.90
25949;DHT22;13961;51.178;4.448;2023-10-08T05:07:17;15.90;99.90
25949;DHT22;13961;51.178;4.448;2023-10-08T05:09:46;15.90;99.90
25949;DHT22;13961;51.178;4.448;2023-10-08T05:12:37;15.90;99.90
25949;DHT22;13961;51.178;4.448;2023-10-08T05:15:07;15.90;99.90
25949;DHT22;13961;51.178;4.448;2023-10-08T05:17:43;15.90;99.90
25949;DHT22;13961;51.178;4.448;2023-10-08T05:20:22;15.90;99.90
25949;DHT22;13961;51.178;4.448;2023-10-08T05:23:10;15.90;99.90
25949;DHT22;13961;51.178;4.448;2023-10-08T05:25:57;15.80;99.90
25949;DHT22;13961;51.178;4.448;2023-10-08T05:28:27;15.80;99.90
25949;DHT22;13961;51.178;4.448;2023-10-08T05:30:55;15.90;99.90
25949;DHT22;13961;51.178;4.448;2023-10-08T05:33:37;15.80;99.90
25949;DHT22;13961;51.178;4.448;2023-10-08T05:36:26;15.80;99.90
25949;DHT22;13961;51.178;4.448;2023-10-08T05:39:10;15.70;99.90
25949;DHT22;13961;51.178;4.448;2023-10-08T05:41:58;15.70;99.90
25949;DHT22;13961;51.178;4.448;2023-10-08T05:44:41;15.70;99.90
25949;DHT22;13961;51.178;4.448;2023-10-08T05:47:26;15.70;99.90
25949;DHT22;13961;51.178;4.448;2023-10-08T05:50:15;15.70;99.90
25949;DHT22;13961;51.178;4.448;2023-10-08T05:52:45;15.50;99.90
25949;DHT22;13961;51.178;4.448;2023-10-08T05:55:33;15.50;99.90
25949;DHT22;13961;51.178;4.448;2023-10-08T05:58:12;15.50;99.90
25949;DHT22;13961;51.178;4.448;2023-10-08T06:00:46;15.60;99.90
25949;DHT22;13961;51.178;4.448;2023-10-08T06:03:31;15.60;99.90
25949;DHT22;13961;51.178;4.448;2023-10-08T06:06:05;15.80;99.90
25949;DHT22;13961;51.178;4.448;2023-10-08T06:08:40;15.80;99.90
25949;DHT22;13961;51.178;4.448;2023-10-08T06:11:25;15.90;99.90
25949;DHT22;13961;51.178;4.448;2023-10-08T06:14:10;16.00;99.90
25949;DHT22;13961;51.178;4.448;2023-10-08T06:16:42;16.00;99.90
25949;DHT22;13961;51.178;4.448;2023-10-08T06:19:13;16.10;99.90
25949;DHT22;13961;51.178;4.448;2023-10-08T06:21:41;16.10;99.90
25949;DHT22;13961;51.178;4.448;2023-10-08T06:24:09;16.20;99.90
25949;DHT22;13961;51.178;4.448;2023-10-08T06:26:37;16.20;99.90
25949;DHT22;13961;51.178;4.448;2023-10-08T06:29:10;16.40;99.90
25949;DHT22;13961;51.178;4.448;2023-10-08T06:31:54;16.30;99.90
25949;DHT22;13961;51.178;4.448;2023-10-08T06:34:21;16.40;99.90
25949;DHT22;13961;51.178;4.448;2023-10-08T06:36:49;16.50;99.90
25949;DHT22;13961;51.178;4.448;2023-10-08T06:39:23;16.40;99.90
25949;DHT22;13961;51.178;4.448;2023-10-08T06:42:02;16.60;99.90
25949;DHT22;13961;51.178;4.448;2023-10-08T06:44:28;16.80;99.90
25949;DHT22;13961;51.178;4.448;2023-10-08T06:46:54;16.90;99.90
25949;DHT22;13961;51.178;4.448;2023-10-08T06:49:23;17.00;99.90
25949;DHT22;13961;51.178;4.448;2023-10-08T06:51:51;17.10;99.90
25949;DHT22;13961;51.178;4.448;2023-10-08T06:54:17;17.10;99.90
25949;DHT22;13961;51.178;4.448;2023-10-08T06:56:44;17.10;99.90
25949;DHT22;13961;51.178;4.448;2023-10-08T06:59:18;17.10;99.90
25949;DHT22;13961;51.178;4.448;2023-10-08T07:01:44;17.30;99.90
25949;DHT22;13961;51.178;4.448;2023-10-08T07:04:13;17.40;99.90
25949;DHT22;13961;51.178;4.448;2023-10-08T07:06:43;17.40;99.90
25949;DHT22;13961;51.178;4.448;2023-10-08T07:09:10;17.60;99.90
25949;DHT22;13961;51.178;4.448;2023-10-08T07:11:55;17.80;99.90
25949;DHT22;13961;51.178;4.448;2023-10-08T07:14:26;17.80;99.90
25949;DHT22;13961;51.178;4.448;2023-10-08T07:16:59;18.00;99.90
25949;DHT22;13961;51.178;4.448;2023-10-08T07:19:29;18.20;99.90
25949;DHT22;13961;51.178;4.448;2023-10-08T07:22:03;18.30;99.90
25949;DHT22;13961;51.178;4.448;2023-10-08T07:24:34;18.40;99.90
25949;DHT22;13961;51.178;4.448;2023-10-08T07:27:02;18.80;99.90
25949;DHT22;13961;51.178;4.448;2023-10-08T07:29:35;19.00;99.90
25949;DHT22;13961;51.178;4.448;2023-10-08T07:32:01;19.10;99.90
25949;DHT22;13961;51.178;4.448;2023-10-08T07:34:36;19.20;99.90
25949;DHT22;13961;51.178;4.448;2023-10-08T07:37:02;19.50;99.90
25949;DHT22;13961;51.178;4.448;2023-10-08T07:39:27;19.70;99.90
25949;DHT22;13961;51.178;4.448;2023-10-08T07:42:03;20.00;99.90
25949;DHT22;13961;51.178;4.448;2023-10-08T07:44:33;20.30;99.90
25949;DHT22;13961;51.178;4.448;2023-10-08T07:47:04;20.70;99.90
25949;DHT22;13961;51.178;4.448;2023-10-08T07:49:31;21.20;99.90
25949;DHT22;13961;51.178;4.448;2023-10-08T07:51:58;21.60;99.90
25949;DHT22;13961;51.178;4.448;2023-10-08T07:54:27;21.50;99.90
25949;DHT22;13961;51.178;4.448;2023-10-08T07:57:01;21.70;99.90
25949;DHT22;13961;51.178;4.448;2023-10-08T07:59:38;21.80;99.90
25949;DHT22;13961;51.178;4.448;2023-10-08T08:02:07;22.40;99.90
25949;DHT22;13961;51.178;4.448;2023-10-08T08:04:43;22.70;99.90
25949;DHT22;13961;51.178;4.448;2023-10-08T08:07:11;23.00;99.90
25949;DHT22;13961;51.178;4.448;2023-10-08T08:09:42;23.10;99.90
25949;DHT22;13961;51.178;4.448;2023-10-08T08:12:16;23.10;99.90
25949;DHT22;13961;51.178;4.448;2023-10-08T08:14:42;22.80;99.90
25949;DHT22;13961;51.178;4.448;2023-10-08T08:17:08;22.60;99.90
25949;DHT22;13961;51.178;4.448;2023-10-08T08:19:41;22.70;99.90
25949;DHT22;13961;51.178;4.448;2023-10-08T08:22:07;22.80;99.90
25949;DHT22;13961;51.178;4.448;2023-10-08T08:24:33;22.30;99.90
25949;DHT22;13961;51.178;4.448;2023-10-08T08:27:03;22.20;99.90
25949;DHT22;13961;51.178;4.448;2023-10-08T08:29:37;22.10;99.90
25949;DHT22;13961;51.178;4.448;2023-10-08T08:32:14;21.70;99.90
25949;DHT22;13961;51.178;4.448;2023-10-08T08:34:44;21.70;99.90
25949;DHT22;13961;51.178;4.448;2023-10-08T08:37:11;21.90;99.90
25949;DHT22;13961;51.178;4.448;2023-10-08T08:39:38;22.10;99.90
25949;DHT22;13961;51.178;4.448;2023-10-08T08:42:04;21.90;99.90
25949;DHT22;13961;51.178;4.448;2023-10-08T08:44:35;21.20;99.90
25949;DHT22;13961;51.178;4.448;2023-10-08T08:47:05;20.70;99.90
25949;DHT22;13961;51.178;4.448;2023-10-08T08:49:36;20.20;99.90
25949;DHT22;13961;51.178;4.448;2023-10-08T08:52:03;19.80;99.90
25949;DHT22;13961;51.178;4.448;2023-10-08T08:54:29;20.20;99.90
25949;DHT22;13961;51.178;4.448;2023-10-08T08:57:00;20.40;99.90
25949;DHT22;13961;51.178;4.448;2023-10-08T08:59:30;20.70;99.90
25949;DHT22;13961;51.178;4.448;2023-10-08T09:01:59;20.40;99.90
25949;DHT22;13961;51.178;4.448;2023-10-08T09:04:31;20.50;99.90
25949;DHT22;13961;51.178;4.448;2023-10-08T09:07:01;20.10;99.90
25949;DHT22;13961;51.178;4.448;2023-10-08T09:09:34;19.90;99.90
25949;DHT22;13961;51.178;4.448;2023-10-08T09:12:07;19.80;99.90
25949;DHT22;13961;51.178;4.448;2023-10-08T09:14:36;20.20;99.90
25949;DHT22;13961;51.178;4.448;2023-10-08T09:17:05;20.20;99.90
25949;DHT22;13961;51.178;4.448;2023-10-08T09:19:39;20.30;99.90
25949;DHT22;13961;51.178;4.448;2023-10-08T09:22:09;20.50;99.90
25949;DHT22;13961;51.178;4.448;2023-10-08T09:24:43;20.80;99.90
25949;DHT22;13961;51.178;4.448;2023-10-08T09:27:11;21.10;99.90
25949;DHT22;13961;51.178;4.448;2023-10-08T09:29:40;21.30;99.90
25949;DHT22;13961;51.178;4.448;2023-10-08T09:32:08;21.70;99.90
25949;DHT22;13961;51.178;4.448;2023-10-08T09:34:34;22.10;99.90
25949;DHT22;13961;51.178;4.448;2023-10-08T09:37:00;22.10;99.90
25949;DHT22;13961;51.178;4.448;2023-10-08T09:39:27;22.10;99.90
25949;DHT22;13961;51.178;4.448;2023-10-08T09:41:57;22.20;99.90
25949;DHT22;13961;51.178;4.448;2023-10-08T09:44:24;22.00;99.90
25949;DHT22;13961;51.178;4.448;2023-10-08T09:47:04;22.20;99.90
25949;DHT22;13961;51.178;4.448;2023-10-08T09:52:26;22.30;99.90
25949;DHT22;13961;51.178;4.448;2023-10-08T09:55:00;22.30;99.90
25949;DHT22;13961;51.178;4.448;2023-10-08T09:57:28;22.50;99.90
25949;DHT22;13961;51.178;4.448;2023-10-08T09:59:54;22.60;99.90
25949;DHT22;13961;51.178;4.448;2023-10-08T10:02:20;22.70;99.90
25949;DHT22;13961;51.178;4.448;2023-10-08T10:04:53;22.90;99.90
25949;DHT22;13961;51.178;4.448;2023-10-08T10:07:20;23.00;99.90
25949;DHT22;13961;51.178;4.448;2023-10-08T10:09:50;23.10;99.90
25949;DHT22;13961;51.178;4.448;2023-10-08T10:12:26;23.10;99.90
25949;DHT22;13961;51.178;4.448;2023-10-08T10:14:55;23.10;99.90
25949;DHT22;13961;51.178;4.448;2023-10-08T10:17:23;23.00;99.90
25949;DHT22;13961;51.178;4.448;2023-10-08T10:19:59;23.20;99.90
25949;DHT22;13961;51.178;4.448;2023-10-08T10:22:35;22.90;99.90
25949;DHT22;13961;51.178;4.448;2023-10-08T10:25:05;22.50;99.90
25949;DHT22;13961;51.178;4.448;2023-10-08T10:30:16;22.70;99.90
25949;DHT22;13961;51.178;4.448;2023-10-08T10:32:44;22.90;99.90
25949;DHT22;13961;51.178;4.448;2023-10-08T10:35:14;23.00;99.90
25949;DHT22;13961;51.178;4.448;2023-10-08T10:37:43;23.00;99.90
25949;DHT22;13961;51.178;4.448;2023-10-08T10:40:22;23.20;99.90
25949;DHT22;13961;51.178;4.448;2023-10-08T10:43:22;23.10;99.90
25949;DHT22;13961;51.178;4.448;2023-10-08T10:45:56;23.00;99.90
25949;DHT22;13961;51.178;4.448;2023-10-08T10:48:23;23.10;99.90
25949;DHT22;13961;51.178;4.448;2023-10-08T10:50:51;23.30;99.90
25949;DHT22;13961;51.178;4.448;2023-10-08T10:53:36;23.00;99.90
25949;DHT22;13961;51.178;4.448;2023-10-08T10:56:20;23.00;99.90
25949;DHT22;13961;51.178;4.448;2023-10-08T10:59:02;23.10;99.90
25949;DHT22;13961;51.178;4.448;2023-10-08T11:01:41;23.30;99.90
25949;DHT22;13961;51.178;4.448;2023-10-08T11:04:20;23.50;99.90
25949;DHT22;13961;51.178;4.448;2023-10-08T11:06:55;23.50;99.90
25949;DHT22;13961;51.178;4.448;2023-10-08T11:09:25;23.70;99.90
25949;DHT22;13961;51.178;4.448;2023-10-08T11:12:10;23.30;99.90
25949;DHT22;13961;51.178;4.448;2023-10-08T11:14:40;23.50;99.90
25949;DHT22;13961;51.178;4.448;2023-10-08T11:17:37;23.30;99.90
25949;DHT22;13961;51.178;4.448;2023-10-08T11:20:24;23.50;99.90
25949;DHT22;13961;51.178;4.448;2023-10-08T11:22:51;23.50;99.90
25949;DHT22;13961;51.178;4.448;2023-10-08T11:25:23;23.50;99.90
25949;DHT22;13961;51.178;4.448;2023-10-08T11:27:53;23.50;99.90
25949;DHT22;13961;51.178;4.448;2023-10-08T11:30:28;23.40;99.90
25949;DHT22;13961;51.178;4.448;2023-10-08T11:32:58;23.00;99.90
25949;DHT22;13961;51.178;4.448;2023-10-08T11:35:25;23.10;99.90
25949;DHT22;13961;51.178;4.448;2023-10-08T11:37:59;23.40;99.90
25949;DHT22;13961;51.178;4.448;2023-10-08T11:40:27;23.70;99.90
25949;DHT22;13961;51.178;4.448;2023-10-08T11:43:14;23.60;99.90
25949;DHT22;13961;51.178;4.448;2023-10-08T11:45:42;23.30;99.90
25949;DHT22;13961;51.178;4.448;2023-10-08T11:48:14;23.10;99.90
25949;DHT22;13961;51.178;4.448;2023-10-08T11:50:43;23.00;99.90
25949;DHT22;13961;51.178;4.448;2023-10-08T11:53:09;22.80;99.90
25949;DHT22;13961;51.178;4.448;2023-10-08T11:55:37;23.00;99.90
25949;DHT22;13961;51.178;4.448;2023-10-08T11:58:07;23.30;99.90
25949;DHT22;13961;51.178;4.448;2023-10-08T12:00:40;23.60;99.90
25949;DHT22;13961;51.178;4.448;2023-10-08T12:03:17;23.90;99.90
25949;DHT22;13961;51.178;4.448;2023-10-08T12:05:47;24.00;99.90
25949;DHT22;13961;51.178;4.448;2023-10-08T12:08:16;24.20;99.90
25949;DHT22;13961;51.178;4.448;2023-10-08T12:10:45;24.20;99.90
25949;DHT22;13961;51.178;4.448;2023-10-08T12:13:13;24.40;99.90
25949;DHT22;13961;51.178;4.448;2023-10-08T12:15:39;24.60;99.90
25949;DHT22;13961;51.178;4.448;2023-10-08T12:18:07;24.50;99.90
25949;DHT22;13961;51.178;4.448;2023-10-08T12:20:50;24.30;99.90
25949;DHT22;13961;51.178;4.448;2023-10-08T12:23:16;24.20;99.90
25949;DHT22;13961;51.178;4.448;2023-10-08T12:25:54;24.30;99.90
25949;DHT22;13961;51.178;4.448;2023-10-08T12:28:21;24.40;99.90
25949;DHT22;13961;51.178;4.448;2023-10-08T12:30:49;24.30;99.90
25949;DHT22;13961;51.178;4.448;2023-10-08T12:33:21;24.40;99.90
25949;DHT22;13961;51.178;4.448;2023-10-08T12:35:48;24.10;99.90
25949;DHT22;13961;51.178;4.448;2023-10-08T12:38:14;24.20;99.90
25949;DHT22;13961;51.178;4.448;2023-10-08T12:40:41;24.10;99.90
25949;DHT22;13961;51.178;4.448;2023-10-08T12:43:14;24.30;99.90
25949;DHT22;13961;51.178;4.448;2023-10-08T12:45:48;24.50;99.90
25949;DHT22;13961;51.178;4.448;2023-10-08T12:48:22;24.50;99.90
25949;DHT22;13961;51.178;4.448;2023-10-08T12:50:48;24.40;99.90
25949;DHT22;13961;51.178;4.448;2023-10-08T12:53:27;24.40;99.90
25949;DHT22;13961;51.178;4.448;2023-10-08T12:56:03;24.40;99.90
25949;DHT22;13961;51.178;4.448;2023-10-08T12:58:34;24.50;99.90
25949;DHT22;13961;51.178;4.448;2023-10-08T13:01:07;24.60;99.90
25949;DHT22;13961;51.178;4.448;2023-10-08T13:03:36;24.80;99.90
25949;DHT22;13961;51.178;4.448;2023-10-08T13:06:09;24.90;99.90
25949;DHT22;13961;51.178;4.448;2023-10-08T13:08:40;24.90;99.90
25949;DHT22;13961;51.178;4.448;2023-10-08T13:11:06;25.20;99.90
25949;DHT22;13961;51.178;4.448;2023-10-08T13:13:33;25.00;99.90
25949;DHT22;13961;51.178;4.448;2023-10-08T13:16:00;24.70;99.90
25949;DHT22;13961;51.178;4.448;2023-10-08T13:18:29;24.80;99.90
25949;DHT22;13961;51.178;4.448;2023-10-08T13:20:55;24.60;99.90
25949;DHT22;13961;51.178;4.448;2023-10-08T13:23:23;24.60;99.90
25949;DHT22;13961;51.178;4.448;2023-10-08T13:25:55;24.70;99.90
25949;DHT22;13961;51.178;4.448;2023-10-08T13:28:24;24.70;99.90
25949;DHT22;13961;51.178;4.448;2023-10-08T13:30:52;24.70;99.90
25949;DHT22;13961;51.178;4.448;2023-10-08T13:33:20;24.70;99.90
25949;DHT22;13961;51.178;4.448;2023-10-08T13:35:50;24.80;99.90
25949;DHT22;13961;51.178;4.448;2023-10-08T13:38:19;25.00;99.90
25949;DHT22;13961;51.178;4.448;2023-10-08T13:40:46;25.30;99.90
25949;DHT22;13961;51.178;4.448;2023-10-08T13:43:31;25.40;99.90
25949;DHT22;13961;51.178;4.448;2023-10-08T13:46:03;25.40;99.90
25949;DHT22;13961;51.178;4.448;2023-10-08T13:48:35;25.30;99.90
25949;DHT22;13961;51.178;4.448;2023-10-08T13:51:05;25.60;99.90
25949;DHT22;13961;51.178;4.448;2023-10-08T13:53:36;25.40;99.90
25949;DHT22;13961;51.178;4.448;2023-10-08T13:56:04;25.00;99.90
25949;DHT22;13961;51.178;4.448;2023-10-08T13:58:31;25.10;99.90
25949;DHT22;13961;51.178;4.448;2023-10-08T14:01:00;25.20;99.90
25949;DHT22;13961;51.178;4.448;2023-10-08T14:03:27;25.10;99.90
25949;DHT22;13961;51.178;4.448;2023-10-08T14:05:59;25.00;99.90
25949;DHT22;13961;51.178;4.448;2023-10-08T14:08:30;24.70;99.90
25949;DHT22;13961;51.178;4.448;2023-10-08T14:10:57;24.50;99.90
25949;DHT22;13961;51.178;4.448;2023-10-08T14:13:32;24.60;99.90
25949;DHT22;13961;51.178;4.448;2023-10-08T14:15:59;24.80;99.90
25949;DHT22;13961;51.178;4.448;2023-10-08T14:18:25;25.00;99.90
25949;DHT22;13961;51.178;4.448;2023-10-08T14:21:09;25.20;99.90
25949;DHT22;13961;51.178;4.448;2023-10-08T14:23:39;24.90;99.90
25949;DHT22;13961;51.178;4.448;2023-10-08T14:26:08;24.70;99.90
25949;DHT22;13961;51.178;4.448;2023-10-08T14:28:35;24.70;99.90
25949;DHT22;13961;51.178;4.448;2023-10-08T14:31:17;24.80;99.90
25949;DHT22;13961;51.178;4.448;2023-10-08T14:33:43;25.00;99.90
25949;DHT22;13961;51.178;4.448;2023-10-08T14:36:24;25.00;99.90
25949;DHT22;13961;51.178;4.448;2023-10-08T14:39:09;25.00;99.90
25949;DHT22;13961;51.178;4.448;2023-10-08T14:41:54;24.70;99.90
25949;DHT22;13961;51.178;4.448;2023-10-08T14:44:38;24.80;99.90
25949;DHT22;13961;51.178;4.448;2023-10-08T14:47:05;24.90;99.90
25949;DHT22;13961;51.178;4.448;2023-10-08T14:49:31;24.80;99.90
25949;DHT22;13961;51.178;4.448;2023-10-08T14:51:58;24.70;99.90
25949;DHT22;13961;51.178;4.448;2023-10-08T14:54:25;25.00;99.90
25949;DHT22;13961;51.178;4.448;2023-10-08T14:56:51;24.40;99.90
25949;DHT22;13961;51.178;4.448;2023-10-08T14:59:17;24.30;99.90
25949;DHT22;13961;51.178;4.448;2023-10-08T15:01:47;24.30;99.90
25949;DHT22;13961;51.178;4.448;2023-10-08T15:04:13;24.30;99.90
25949;DHT22;13961;51.178;4.448;2023-10-08T15:06:39;24.20;99.90
25949;DHT22;13961;51.178;4.448;2023-10-08T15:09:08;24.30;99.90
25949;DHT22;13961;51.178;4.448;2023-10-08T15:11:35;24.10;99.90
25949;DHT22;13961;51.178;4.448;2023-10-08T15:14:02;24.10;99.90
25949;DHT22;13961;51.178;4.448;2023-10-08T15:16:38;24.20;99.90
25949;DHT22;13961;51.178;4.448;2023-10-08T15:19:07;24.00;99.90
25949;DHT22;13961;51.178;4.448;2023-10-08T15:21:38;23.90;99.90
25949;DHT22;13961;51.178;4.448;2023-10-08T15:24:06;23.80;99.90
25949;DHT22;13961;51.178;4.448;2023-10-08T15:26:38;23.80;99.90
25949;DHT22;13961;51.178;4.448;2023-10-08T15:29:07;23.90;99.90
25949;DHT22;13961;51.178;4.448;2023-10-08T15:31:32;24.00;99.90
25949;DHT22;13961;51.178;4.448;2023-10-08T15:33:58;24.10;99.90
25949;DHT22;13961;51.178;4.448;2023-10-08T15:36:25;24.10;99.90
25949;DHT22;13961;51.178;4.448;2023-10-08T15:38:52;24.00;99.90
25949;DHT22;13961;51.178;4.448;2023-10-08T15:41:18;23.70;99.90
25949;DHT22;13961;51.178;4.448;2023-10-08T15:43:50;23.90;99.90
25949;DHT22;13961;51.178;4.448;2023-10-08T15:46:20;23.80;99.90
25949;DHT22;13961;51.178;4.448;2023-10-08T15:48:45;23.90;99.90
25949;DHT22;13961;51.178;4.448;2023-10-08T15:51:12;23.80;99.90
25949;DHT22;13961;51.178;4.448;2023-10-08T15:53:37;23.50;99.90
25949;DHT22;13961;51.178;4.448;2023-10-08T15:56:05;23.30;99.90
25949;DHT22;13961;51.178;4.448;2023-10-08T15:58:30;23.20;99.90
25949;DHT22;13961;51.178;4.448;2023-10-08T16:00:56;23.40;99.90
25949;DHT22;13961;51.178;4.448;2023-10-08T16:03:22;23.60;99.90